Time;durP1;ratioP1;P1;durP2;ratioP2;P2;SDS_P1;SDS_P2;PMS_P1;PMS_P2;Temp;Humidity;BMP_temperature;BMP_pressure;BME280_temperature;BME280_humidity;BME280_pressure;Samples;Min_cycle;Max_cycle;Signal;HPM_P1;HPM_P2
2023/05/07 00:00:03;;;;;;;42.65;25.50;;;13.70;99.90;;;;;;5039107;28;20045;-67
2023/05/07 00:02:29;;;;;;;39.47;24.92;;;13.70;99.90;;;;;;5038789;28;20457;-67
2023/05/07 00:04:55;;;;;;;46.95;26.55;;;13.70;99.90;;;;;;5041532;28;20036;-67
2023/05/07 00:07:20;;;;;;;41.80;25.30;;;13.60;99.90;;;;;;5044019;28;20043;-68
2023/05/07 00:09:46;;;;;;;43.45;26.45;;;13.70;99.90;;;;;;5042408;28;20037;-68
2023/05/07 00:12:11;;;;;;;40.90;25.23;;;13.60;99.90;;;;;;5040104;28;20056;-68
2023/05/07 00:14:37;;;;;;;40.60;24.90;;;13.60;99.90;;;;;;5043556;28;20045;-68
2023/05/07 00:17:03;;;;;;;46.85;27.17;;;13.60;99.90;;;;;;5036235;28;20041;-68
2023/05/07 00:19:28;;;;;;;48.30;27.50;;;13.60;99.90;;;;;;5042167;28;20489;-68
2023/05/07 00:21:55;;;;;;;44.88;25.95;;;13.60;99.90;;;;;;5053978;28;20486;-68
2023/05/07 00:24:21;;;;;;;43.20;25.90;;;13.60;99.90;;;;;;5045025;28;20075;-68
2023/05/07 00:26:46;;;;;;;42.72;25.42;;;13.60;99.90;;;;;;5040834;28;20531;-68
2023/05/07 00:29:12;;;;;;;39.90;25.45;;;13.60;99.90;;;;;;5043497;28;20483;-68
2023/05/07 00:31:37;;;;;;;37.42;24.80;;;13.60;99.90;;;;;;5041300;28;20072;-68
2023/05/07 00:34:03;;;;;;;40.35;24.77;;;13.60;99.90;;;;;;5053234;28;20044;-68
2023/05/07 00:36:28;;;;;;;44.15;26.13;;;13.60;99.90;;;;;;5041131;28;20065;-68
2023/05/07 00:38:56;;;;;;;40.63;25.17;;;13.50;99.90;;;;;;5039165;28;20049;-68
2023/05/07 00:41:22;;;;;;;41.90;26.25;;;13.60;99.90;;;;;;5043819;28;20036;-68
2023/05/07 00:43:48;;;;;;;39.97;25.95;;;13.50;99.90;;;;;;5041594;28;20567;-68
2023/05/07 00:46:14;;;;;;;42.63;25.50;;;13.50;99.90;;;;;;5042960;28;20084;-68
2023/05/07 00:48:40;;;;;;;40.95;25.38;;;13.60;99.90;;;;;;5041127;28;20045;-67
2023/05/07 00:51:05;;;;;;;41.08;24.80;;;13.50;99.90;;;;;;5041331;28;20052;-67
2023/05/07 00:53:31;;;;;;;42.15;25.63;;;13.60;99.90;;;;;;5042464;28;20033;-67
2023/05/07 00:55:57;;;;;;;40.70;25.63;;;13.50;99.90;;;;;;5042834;28;20540;-67
2023/05/07 00:58:23;;;;;;;39.10;24.13;;;13.50;99.90;;;;;;5040632;28;20052;-67
2023/05/07 01:00:49;;;;;;;43.83;26.35;;;13.50;99.90;;;;;;5046584;28;20069;-67
2023/05/07 01:03:15;;;;;;;41.80;25.23;;;13.50;99.90;;;;;;5049347;28;20472;-67
2023/05/07 01:05:42;;;;;;;39.67;24.38;;;13.50;99.90;;;;;;5047127;28;20086;-67
2023/05/07 01:08:08;;;;;;;38.47;25.00;;;13.60;99.90;;;;;;5044189;28;20083;-67
2023/05/07 01:10:34;;;;;;;36.47;24.45;;;13.50;99.90;;;;;;5046104;28;20132;-67
2023/05/07 01:13:00;;;;;;;39.72;24.45;;;13.50;99.90;;;;;;5043458;28;20043;-67
2023/05/07 01:15:26;;;;;;;37.17;23.65;;;13.50;99.90;;;;;;5050264;28;20069;-67
2023/05/07 01:17:51;;;;;;;36.42;23.02;;;13.50;99.90;;;;;;5047877;28;20084;-68
2023/05/07 01:20:18;;;;;;;38.80;23.73;;;13.50;99.90;;;;;;5045270;28;20041;-68
2023/05/07 01:22:44;;;;;;;37.97;23.42;;;13.50;99.90;;;;;;5049456;28;20041;-68
2023/05/07 01:25:10;;;;;;;32.95;22.15;;;13.50;99.90;;;;;;5048353;28;20124;-69
2023/05/07 01:27:36;;;;;;;35.25;21.20;;;13.50;99.90;;;;;;5050944;28;20525;-68
2023/05/07 01:30:03;;;;;;;35.83;20.63;;;13.50;99.90;;;;;;5048381;28;20392;-68
2023/05/07 01:32:43;;;;;;;28.55;17.73;;;13.40;99.90;;;;;;5049543;28;20772;-69
2023/05/07 01:35:11;;;;;;;29.33;18.85;;;13.40;99.90;;;;;;5045587;28;20068;-68
2023/05/07 01:37:39;;;;;;;29.67;18.15;;;13.30;99.90;;;;;;5048556;28;20053;-69
2023/05/07 01:40:07;;;;;;;30.92;18.08;;;13.30;99.90;;;;;;5048844;28;20048;-68
2023/05/07 01:42:32;;;;;;;30.38;18.83;;;13.30;99.90;;;;;;5048571;28;20047;-68
2023/05/07 01:45:00;;;;;;;30.20;18.38;;;13.20;99.90;;;;;;5049610;28;20041;-68
2023/05/07 01:47:26;;;;;;;29.85;18.90;;;13.30;99.90;;;;;;5044669;28;20048;-67
2023/05/07 01:49:52;;;;;;;29.38;18.90;;;13.20;99.90;;;;;;5040704;28;20171;-68
2023/05/07 01:52:18;;;;;;;27.15;18.52;;;13.20;99.90;;;;;;5036413;28;20101;-68
2023/05/07 01:54:43;;;;;;;27.40;18.17;;;13.20;99.90;;;;;;5043938;28;20484;-69
2023/05/07 01:57:09;;;;;;;26.70;18.17;;;13.10;99.90;;;;;;5046336;28;20049;-69
2023/05/07 01:59:34;;;;;;;28.95;17.00;;;13.10;99.90;;;;;;5046013;28;20069;-69
2023/05/07 02:02:00;;;;;;;27.90;18.10;;;13.00;99.90;;;;;;5044345;28;20511;-67
2023/05/07 02:04:26;;;;;;;27.90;18.05;;;13.00;99.90;;;;;;5048005;28;20391;-67
2023/05/07 02:06:52;;;;;;;27.15;19.15;;;13.00;99.90;;;;;;5050002;28;20097;-68
2023/05/07 02:09:18;;;;;;;27.92;19.13;;;13.00;99.90;;;;;;5055739;28;20044;-67
2023/05/07 02:11:44;;;;;;;30.33;20.50;;;13.00;99.90;;;;;;5035482;28;20041;-67
2023/05/07 02:14:10;;;;;;;32.30;19.98;;;13.00;99.90;;;;;;5054681;28;20070;-67
2023/05/07 02:16:35;;;;;;;33.00;21.30;;;13.00;99.90;;;;;;5045332;28;20067;-67
2023/05/07 02:19:02;;;;;;;37.33;22.05;;;12.90;99.90;;;;;;5043681;28;20041;-67
2023/05/07 02:21:28;;;;;;;37.28;22.58;;;12.80;99.90;;;;;;5045345;28;20515;-69
2023/05/07 02:23:53;;;;;;;38.05;23.23;;;12.90;99.90;;;;;;5056661;28;20056;-67
2023/05/07 02:26:19;;;;;;;35.33;22.20;;;12.80;99.90;;;;;;5045619;28;20119;-68
2023/05/07 02:28:45;;;;;;;32.83;21.75;;;12.70;99.90;;;;;;5050227;28;20086;-67
2023/05/07 02:31:11;;;;;;;36.67;23.25;;;12.80;99.90;;;;;;5049742;28;20048;-67
2023/05/07 02:33:37;;;;;;;34.42;22.55;;;12.70;99.90;;;;;;5044049;28;20185;-66
2023/05/07 02:36:07;;;;;;;37.72;23.73;;;12.60;99.90;;;;;;5045009;28;20549;-64
2023/05/07 02:38:32;;;;;;;38.10;23.02;;;12.70;99.90;;;;;;5042603;28;20661;-67
2023/05/07 02:40:58;;;;;;;34.65;22.70;;;12.60;99.90;;;;;;5050302;28;20029;-67
2023/05/07 02:43:23;;;;;;;36.50;22.88;;;12.60;99.90;;;;;;5053075;28;20399;-67
2023/05/07 02:45:49;;;;;;;37.95;23.48;;;12.50;99.90;;;;;;5048149;28;20037;-67
2023/05/07 02:48:14;;;;;;;36.72;24.02;;;12.50;99.90;;;;;;5044402;28;20041;-67
2023/05/07 02:50:40;;;;;;;37.95;23.65;;;12.50;99.90;;;;;;5045229;28;20037;-67
2023/05/07 02:53:06;;;;;;;36.55;24.30;;;12.40;99.90;;;;;;5046512;28;20166;-69
2023/05/07 02:55:31;;;;;;;36.47;23.35;;;12.40;99.90;;;;;;5047976;28;20108;-67
2023/05/07 02:57:57;;;;;;;36.80;22.90;;;12.30;99.90;;;;;;5043318;28;20435;-66
2023/05/07 03:00:23;;;;;;;39.83;24.33;;;12.30;99.90;;;;;;5041710;28;20048;-66
2023/05/07 03:02:49;;;;;;;37.38;24.25;;;12.20;99.90;;;;;;5029685;28;20476;-66
2023/05/07 03:05:15;;;;;;;37.30;23.70;;;12.20;99.90;;;;;;5044631;28;20172;-64
2023/05/07 03:07:44;;;;;;;39.45;24.48;;;12.20;99.90;;;;;;5062888;28;20055;-69
2023/05/07 03:10:09;;;;;;;37.03;23.67;;;12.10;99.90;;;;;;5046870;28;20041;-66
2023/05/07 03:12:35;;;;;;;38.63;24.77;;;12.10;99.90;;;;;;5040768;28;20053;-67
2023/05/07 03:15:01;;;;;;;40.88;25.73;;;12.10;99.90;;;;;;5044772;28;20373;-65
2023/05/07 03:17:29;;;;;;;39.40;25.23;;;12.00;99.90;;;;;;5047912;28;20043;-65
2023/05/07 03:19:55;;;;;;;40.53;24.90;;;12.00;99.90;;;;;;5044561;28;20103;-64
2023/05/07 03:22:20;;;;;;;40.13;25.55;;;12.00;99.90;;;;;;5045820;28;20457;-65
2023/05/07 03:24:46;;;;;;;42.20;25.13;;;11.90;99.90;;;;;;5044695;28;20048;-65
2023/05/07 03:27:11;;;;;;;43.95;26.08;;;11.90;99.90;;;;;;5045338;28;20510;-66
2023/05/07 03:29:37;;;;;;;41.53;25.92;;;11.90;99.90;;;;;;5046924;28;20040;-65
2023/05/07 03:32:03;;;;;;;41.63;25.65;;;11.90;99.90;;;;;;5044989;28;20041;-65
2023/05/07 03:34:28;;;;;;;43.05;25.95;;;11.80;99.90;;;;;;5043770;28;20053;-66
2023/05/07 03:36:54;;;;;;;39.13;25.73;;;11.80;99.90;;;;;;5042725;28;20055;-66
2023/05/07 03:39:19;;;;;;;40.85;26.02;;;11.80;99.90;;;;;;5045148;28;20037;-66
2023/05/07 03:41:46;;;;;;;41.72;25.98;;;11.80;99.90;;;;;;5041728;28;20053;-65
2023/05/07 03:44:22;;;;;;;42.30;26.80;;;11.80;99.90;;;;;;5058409;28;20484;-65
2023/05/07 03:46:48;;;;;;;40.67;26.35;;;11.80;99.90;;;;;;5045737;28;20036;-66
2023/05/07 03:49:13;;;;;;;43.33;26.85;;;11.70;99.90;;;;;;5060876;28;20490;-66
2023/05/07 03:52:33;;;;;;;41.42;25.52;;;11.70;99.90;;;;;;5055691;28;20033;-66
2023/05/07 03:54:58;;;;;;;44.88;26.30;;;11.70;99.90;;;;;;5042021;28;20049;-66
2023/05/07 03:57:42;;;;;;;46.97;27.77;;;11.70;99.90;;;;;;5042808;28;20075;-66
2023/05/07 04:00:08;;;;;;;44.03;27.15;;;11.60;99.90;;;;;;5058861;28;20041;-65
2023/05/07 04:02:34;;;;;;;43.28;26.90;;;11.60;99.90;;;;;;5042286;28;20123;-65
2023/05/07 04:05:00;;;;;;;45.72;27.73;;;11.60;99.90;;;;;;5044157;28;20120;-66
2023/05/07 04:07:25;;;;;;;45.17;27.80;;;11.60;99.90;;;;;;5045216;28;20112;-65
2023/05/07 04:09:51;;;;;;;47.47;27.98;;;11.60;99.90;;;;;;5044368;28;20440;-67
2023/05/07 04:12:16;;;;;;;44.47;28.05;;;11.60;99.90;;;;;;5043681;28;20037;-66
2023/05/07 04:14:42;;;;;;;47.92;27.98;;;11.60;99.90;;;;;;5046492;28;20095;-65
2023/05/07 04:17:23;;;;;;;50.08;29.33;;;11.50;99.90;;;;;;5045119;28;20124;-65
2023/05/07 04:19:48;;;;;;;48.00;29.33;;;11.50;99.90;;;;;;5045462;28;20071;-65
2023/05/07 04:22:14;;;;;;;50.08;30.33;;;11.50;99.90;;;;;;5044558;28;20041;-65
2023/05/07 04:24:39;;;;;;;51.72;30.60;;;11.50;99.90;;;;;;5060685;28;20553;-66
2023/05/07 04:27:06;;;;;;;51.35;30.38;;;11.60;99.90;;;;;;5044616;28;20068;-66
2023/05/07 04:29:31;;;;;;;49.80;29.65;;;11.50;99.90;;;;;;5048057;28;20468;-65
2023/05/07 04:31:58;;;;;;;54.58;31.10;;;11.60;99.90;;;;;;5042068;28;20047;-65
2023/05/07 04:34:24;;;;;;;52.20;29.63;;;11.60;99.90;;;;;;5044266;28;20136;-65
2023/05/07 04:36:49;;;;;;;52.22;29.98;;;11.60;99.90;;;;;;5046131;28;20120;-65
2023/05/07 04:39:15;;;;;;;54.38;32.00;;;11.60;99.90;;;;;;5045203;28;20048;-65
2023/05/07 04:41:40;;;;;;;54.28;32.47;;;11.60;99.90;;;;;;5046318;28;20045;-66
2023/05/07 04:44:06;;;;;;;51.95;30.02;;;11.60;99.90;;;;;;5045462;28;20045;-64
2023/05/07 04:46:32;;;;;;;52.95;31.33;;;11.60;99.90;;;;;;5058007;28;20052;-65
2023/05/07 04:48:57;;;;;;;56.95;31.95;;;11.60;99.90;;;;;;5043233;28;20087;-65
2023/05/07 04:51:23;;;;;;;51.85;32.03;;;11.60;99.90;;;;;;5048846;28;20052;-66
2023/05/07 04:53:49;;;;;;;56.05;31.92;;;11.60;99.90;;;;;;5049517;28;20380;-66
2023/05/07 04:56:33;;;;;;;58.47;32.33;;;11.60;99.90;;;;;;5048962;28;20056;-65
2023/05/07 04:58:59;;;;;;;57.67;32.95;;;11.60;99.90;;;;;;5046442;28;20048;-67
2023/05/07 05:01:25;;;;;;;57.45;32.83;;;11.60;99.90;;;;;;5047005;28;20040;-66
2023/05/07 05:03:50;;;;;;;57.17;32.45;;;11.70;99.90;;;;;;5047545;28;20065;-67
2023/05/07 05:06:16;;;;;;;53.63;32.58;;;11.70;99.90;;;;;;5062095;28;20064;-67
2023/05/07 05:08:41;;;;;;;53.97;32.03;;;11.70;99.90;;;;;;5062039;28;20487;-68
2023/05/07 05:11:07;;;;;;;55.92;33.13;;;11.70;99.90;;;;;;5046414;28;20127;-67
2023/05/07 05:13:32;;;;;;;54.25;32.63;;;11.70;99.90;;;;;;5059642;28;20078;-67
2023/05/07 05:15:58;;;;;;;58.70;32.83;;;11.70;99.90;;;;;;5056648;28;20033;-68
2023/05/07 05:18:23;;;;;;;51.90;31.45;;;11.70;99.90;;;;;;5059588;28;20063;-67
2023/05/07 05:20:49;;;;;;;59.42;33.58;;;11.80;99.90;;;;;;5051022;28;20148;-67
2023/05/07 05:23:15;;;;;;;52.72;32.92;;;11.80;99.90;;;;;;5053562;28;20446;-66
2023/05/07 05:25:40;;;;;;;54.63;31.90;;;11.80;99.90;;;;;;5056769;28;20044;-67
2023/05/07 05:28:06;;;;;;;59.40;33.05;;;11.90;99.90;;;;;;5054986;28;20028;-67
2023/05/07 05:30:31;;;;;;;56.60;32.60;;;11.90;99.90;;;;;;5052452;28;20037;-67
2023/05/07 05:32:57;;;;;;;51.60;31.55;;;12.00;99.90;;;;;;5060768;28;20046;-66
2023/05/07 05:35:22;;;;;;;55.35;32.47;;;12.00;99.90;;;;;;5063600;28;20081;-67
2023/05/07 05:37:48;;;;;;;55.75;32.85;;;12.00;99.90;;;;;;5047816;28;20136;-67
2023/05/07 05:40:13;;;;;;;55.65;32.97;;;12.00;99.90;;;;;;5049968;28;20135;-65
2023/05/07 05:42:39;;;;;;;60.70;33.15;;;12.10;99.90;;;;;;5062233;28;20047;-67
2023/05/07 05:45:05;;;;;;;51.67;31.00;;;12.10;99.90;;;;;;5051075;28;20124;-67
2023/05/07 05:47:31;;;;;;;47.97;29.73;;;12.10;99.90;;;;;;5050874;28;20075;-68
2023/05/07 05:49:58;;;;;;;49.10;30.65;;;12.20;99.90;;;;;;5054954;28;20037;-67
2023/05/07 05:52:24;;;;;;;48.47;29.35;;;12.20;99.90;;;;;;5050560;28;20037;-69
2023/05/07 05:54:50;;;;;;;51.83;30.63;;;12.20;99.90;;;;;;5052699;28;20044;-67
2023/05/07 05:57:16;;;;;;;49.40;30.83;;;12.20;99.90;;;;;;5050650;28;20076;-67
2023/05/07 05:59:44;;;;;;;47.88;29.67;;;12.30;99.90;;;;;;5033427;28;20546;-67
2023/05/07 06:02:09;;;;;;;45.42;30.13;;;12.30;99.90;;;;;;5048982;28;20494;-68
2023/05/07 06:04:35;;;;;;;48.90;30.35;;;12.30;99.90;;;;;;5065006;28;20037;-65
2023/05/07 06:07:00;;;;;;;45.50;29.17;;;12.40;99.90;;;;;;5047266;28;20093;-67
2023/05/07 06:09:26;;;;;;;48.40;29.10;;;12.30;99.90;;;;;;5044483;28;20040;-68
2023/05/07 06:11:51;;;;;;;45.22;29.42;;;12.30;99.90;;;;;;5049697;28;20037;-68
2023/05/07 06:14:17;;;;;;;42.72;27.58;;;12.30;99.90;;;;;;5047355;28;20128;-67
2023/05/07 06:16:43;;;;;;;46.80;28.45;;;12.40;99.90;;;;;;5047894;28;20055;-66
2023/05/07 06:19:09;;;;;;;46.42;28.50;;;12.30;99.90;;;;;;5042466;28;20029;-67
2023/05/07 06:21:34;;;;;;;48.42;27.88;;;12.30;99.90;;;;;;5062319;28;20041;-66
2023/05/07 06:24:00;;;;;;;45.78;28.98;;;12.30;99.90;;;;;;5042737;28;20123;-67
2023/05/07 06:26:32;;;;;;;47.10;29.52;;;12.40;99.90;;;;;;5046072;28;20040;-66
2023/05/07 06:29:01;;;;;;;42.78;27.27;;;12.40;99.90;;;;;;5045886;28;20068;-66
2023/05/07 06:31:30;;;;;;;42.40;27.38;;;12.50;99.90;;;;;;5047917;28;20040;-66
2023/05/07 06:33:56;;;;;;;47.78;28.00;;;12.50;99.90;;;;;;5041890;28;20053;-68
2023/05/07 06:36:21;;;;;;;42.03;28.48;;;12.60;99.90;;;;;;5045518;28;20106;-66
2023/05/07 06:38:47;;;;;;;42.22;27.20;;;12.70;99.90;;;;;;5053215;28;20510;-67
2023/05/07 06:41:12;;;;;;;41.65;27.58;;;12.70;99.90;;;;;;5042511;28;20049;-66
2023/05/07 06:43:38;;;;;;;44.05;28.40;;;12.90;99.90;;;;;;5044733;28;20041;-66
2023/05/07 06:46:04;;;;;;;41.42;27.75;;;12.90;99.90;;;;;;5043582;28;20484;-66
2023/05/07 06:48:29;;;;;;;42.63;27.30;;;13.00;99.90;;;;;;5060550;28;20044;-68
2023/05/07 06:50:57;;;;;;;42.78;26.40;;;13.10;99.90;;;;;;5044703;28;20051;-67
2023/05/07 06:53:23;;;;;;;42.38;26.58;;;13.20;99.90;;;;;;5044437;28;20033;-67
2023/05/07 06:55:55;;;;;;;40.13;26.15;;;13.20;99.90;;;;;;5044099;28;20406;-67
2023/05/07 06:58:20;;;;;;;40.28;26.58;;;13.30;99.90;;;;;;5044224;28;20057;-67
2023/05/07 07:00:46;;;;;;;44.78;28.70;;;13.20;99.90;;;;;;5047597;28;20384;-67
2023/05/07 07:03:11;;;;;;;44.83;27.63;;;13.30;99.90;;;;;;5047256;28;20039;-67
2023/05/07 07:05:37;;;;;;;38.97;27.77;;;13.30;99.90;;;;;;5047136;28;20115;-66
2023/05/07 07:08:02;;;;;;;42.90;28.15;;;13.30;99.90;;;;;;5046507;28;20056;-66
2023/05/07 07:10:28;;;;;;;39.45;26.88;;;13.40;99.90;;;;;;5046688;28;20124;-67
2023/05/07 07:12:53;;;;;;;41.13;27.90;;;13.40;99.90;;;;;;5042521;28;20036;-67
2023/05/07 07:15:20;;;;;;;43.75;27.42;;;13.50;99.90;;;;;;5043761;28;20138;-66
2023/05/07 07:17:46;;;;;;;40.80;27.13;;;13.60;99.90;;;;;;5047047;28;20047;-66
2023/05/07 07:20:11;;;;;;;41.70;27.73;;;13.70;99.90;;;;;;5057960;28;20045;-67
2023/05/07 07:22:38;;;;;;;42.00;27.70;;;13.80;99.90;;;;;;5052976;28;20044;-67
2023/05/07 07:25:04;;;;;;;39.35;27.42;;;13.90;99.90;;;;;;5042215;28;20049;-67
2023/05/07 07:27:30;;;;;;;40.92;27.65;;;14.00;99.90;;;;;;5042688;28;20036;-69
2023/05/07 07:29:58;;;;;;;43.08;26.55;;;14.10;99.90;;;;;;5044244;28;20063;-70
2023/05/07 07:32:24;;;;;;;41.00;27.35;;;14.20;99.90;;;;;;5043063;28;20033;-70
2023/05/07 07:34:49;;;;;;;39.83;26.77;;;14.20;99.90;;;;;;5045407;28;20048;-67
2023/05/07 07:37:15;;;;;;;41.90;26.75;;;14.30;99.90;;;;;;5045987;28;20476;-66
2023/05/07 07:39:41;;;;;;;42.78;27.10;;;14.30;99.90;;;;;;5042777;28;20051;-69
2023/05/07 07:42:06;;;;;;;39.13;26.30;;;14.30;99.90;;;;;;5042086;28;20056;-67
2023/05/07 07:44:32;;;;;;;42.40;27.98;;;14.30;99.90;;;;;;5043154;28;20041;-66
2023/05/07 07:46:57;;;;;;;41.08;27.85;;;14.40;99.90;;;;;;5043411;28;20094;-67
2023/05/07 07:49:23;;;;;;;43.08;28.40;;;14.50;99.90;;;;;;5043449;28;20044;-68
2023/05/07 07:51:48;;;;;;;41.58;27.65;;;14.50;99.90;;;;;;5041852;28;20090;-65
2023/05/07 07:54:14;;;;;;;41.55;27.23;;;14.60;99.90;;;;;;5052665;28;20049;-71
2023/05/07 07:56:39;;;;;;;38.88;27.10;;;14.70;99.90;;;;;;5045898;28;20040;-68
2023/05/07 07:59:05;;;;;;;39.08;26.75;;;14.70;99.90;;;;;;5042563;28;20036;-67
2023/05/07 08:01:31;;;;;;;40.65;28.17;;;14.80;99.90;;;;;;5058554;28;20044;-67
2023/05/07 08:03:58;;;;;;;39.75;26.98;;;14.90;99.90;;;;;;5042666;28;20680;-68
2023/05/07 08:06:25;;;;;;;41.80;27.48;;;15.00;99.90;;;;;;5041743;28;20234;-69
2023/05/07 08:08:51;;;;;;;40.83;27.35;;;15.00;99.90;;;;;;5041791;28;20039;-68
2023/05/07 08:11:16;;;;;;;42.72;28.50;;;15.00;99.90;;;;;;5043863;28;20148;-67
2023/05/07 08:13:42;;;;;;;38.80;27.95;;;15.00;99.90;;;;;;5043729;28;20048;-69
2023/05/07 08:16:08;;;;;;;40.63;27.33;;;15.00;99.90;;;;;;5045148;28;20045;-68
2023/05/07 08:18:34;;;;;;;42.17;27.60;;;15.00;99.90;;;;;;5042841;28;20400;-68
2023/05/07 08:20:59;;;;;;;43.15;29.58;;;15.00;99.90;;;;;;5042800;28;20033;-66
2023/05/07 08:23:25;;;;;;;39.85;27.33;;;15.00;99.90;;;;;;5042930;28;20037;-67
2023/05/07 08:25:51;;;;;;;41.90;28.05;;;15.00;99.90;;;;;;5049437;28;20442;-70
2023/05/07 08:28:16;;;;;;;41.55;28.30;;;15.00;99.90;;;;;;5049602;28;20115;-68
2023/05/07 08:30:43;;;;;;;41.40;28.15;;;15.00;99.90;;;;;;5061986;28;20040;-70
2023/05/07 08:33:09;;;;;;;42.38;28.25;;;15.00;99.90;;;;;;5046876;28;20041;-70
2023/05/07 08:35:35;;;;;;;41.92;28.45;;;15.00;99.90;;;;;;5047184;28;20080;-67
2023/05/07 08:38:00;;;;;;;40.80;28.55;;;15.10;99.90;;;;;;5048626;28;20811;-67
2023/05/07 08:40:27;;;;;;;41.95;28.02;;;15.20;99.90;;;;;;5047325;28;20045;-68
2023/05/07 08:42:53;;;;;;;44.75;28.60;;;15.40;99.90;;;;;;5051524;28;20036;-69
2023/05/07 08:45:20;;;;;;;41.78;28.58;;;15.50;99.90;;;;;;5051695;28;20483;-70
2023/05/07 08:47:58;;;;;;;43.88;28.55;;;15.60;99.90;;;;;;5048492;28;20164;-72
2023/05/07 08:50:24;;;;;;;40.15;28.23;;;15.60;99.90;;;;;;5049349;28;20041;-71
2023/05/07 08:52:49;;;;;;;43.00;28.48;;;15.60;99.90;;;;;;5049395;28;20040;-66
2023/05/07 08:55:20;;;;;;;41.47;29.10;;;15.70;99.90;;;;;;5050106;28;20041;-69
2023/05/07 08:57:46;;;;;;;42.03;27.83;;;15.70;99.90;;;;;;5045481;28;20571;-69
2023/05/07 09:00:12;;;;;;;49.05;29.98;;;15.90;99.90;;;;;;5051320;28;20115;-70
2023/05/07 09:02:38;;;;;;;40.35;27.25;;;16.00;99.90;;;;;;5049381;28;20045;-70
2023/05/07 09:05:04;;;;;;;44.13;30.33;;;16.00;99.90;;;;;;5045446;28;20068;-70
2023/05/07 09:07:30;;;;;;;42.08;28.92;;;16.20;99.90;;;;;;5044646;28;20094;-68
2023/05/07 09:09:56;;;;;;;42.17;28.77;;;16.30;99.90;;;;;;5042963;28;20041;-69
2023/05/07 09:12:22;;;;;;;43.75;29.15;;;16.40;99.90;;;;;;5039838;28;20119;-70
2023/05/07 09:14:48;;;;;;;42.05;28.90;;;16.50;99.90;;;;;;5047168;28;20490;-69
2023/05/07 09:17:15;;;;;;;40.25;27.75;;;16.60;99.90;;;;;;5050910;28;20036;-69
2023/05/07 09:19:47;;;;;;;38.90;28.50;;;16.70;99.90;;;;;;5060968;28;20041;-69
2023/05/07 09:22:13;;;;;;;41.33;28.30;;;16.80;99.90;;;;;;5045042;28;20037;-70
2023/05/07 09:24:38;;;;;;;43.17;28.70;;;16.90;99.90;;;;;;5044843;28;20041;-67
2023/05/07 09:27:05;;;;;;;43.55;27.92;;;17.00;99.90;;;;;;5039711;28;20113;-70
2023/05/07 09:29:37;;;;;;;39.83;27.27;;;17.20;99.90;;;;;;5056796;28;20039;-68
2023/05/07 09:32:07;;;;;;;38.75;27.35;;;17.30;99.90;;;;;;5049179;28;20044;-72
2023/05/07 09:34:33;;;;;;;39.08;27.42;;;17.40;99.90;;;;;;5065047;28;20465;-71
2023/05/07 09:37:02;;;;;;;41.17;28.75;;;17.50;99.90;;;;;;5050151;28;20116;-69
2023/05/07 09:39:41;;;;;;;40.92;28.02;;;17.60;99.90;;;;;;5052034;28;20119;-68
2023/05/07 09:42:06;;;;;;;38.45;26.85;;;17.70;99.90;;;;;;5060042;28;20037;-69
2023/05/07 09:44:33;;;;;;;37.15;27.48;;;17.70;99.90;;;;;;5043910;28;20407;-69
2023/05/07 09:47:00;;;;;;;37.67;27.38;;;17.70;99.90;;;;;;5044723;28;20040;-71
2023/05/07 09:49:32;;;;;;;39.08;26.50;;;17.80;99.90;;;;;;5051833;28;20158;-71
2023/05/07 09:52:00;;;;;;;39.83;27.08;;;17.80;99.90;;;;;;5060686;28;20124;-68
2023/05/07 09:54:30;;;;;;;38.53;26.20;;;17.90;99.90;;;;;;5053330;28;20086;-67
2023/05/07 09:56:56;;;;;;;37.35;27.27;;;18.00;99.90;;;;;;5048191;28;20044;-68
2023/05/07 09:59:24;;;;;;;38.08;27.40;;;18.10;99.90;;;;;;5051277;28;20028;-69
2023/05/07 10:01:52;;;;;;;37.13;26.23;;;18.30;99.90;;;;;;5048294;28;20491;-67
2023/05/07 10:04:18;;;;;;;35.60;26.65;;;18.40;99.90;;;;;;5044510;28;20102;-70
2023/05/07 10:06:44;;;;;;;35.03;26.15;;;18.50;99.90;;;;;;5045422;28;20446;-68
2023/05/07 10:09:11;;;;;;;38.20;26.05;;;18.60;99.90;;;;;;5046771;28;20404;-69
2023/05/07 10:11:37;;;;;;;36.75;27.08;;;18.70;99.90;;;;;;5052969;28;20472;-67
2023/05/07 10:14:05;;;;;;;34.75;26.33;;;18.80;99.90;;;;;;5045651;28;20052;-69
2023/05/07 10:16:32;;;;;;;37.55;26.63;;;18.90;99.90;;;;;;5043769;28;20250;-70
2023/05/07 10:18:58;;;;;;;37.28;26.25;;;18.90;99.90;;;;;;5044086;28;20047;-71
2023/05/07 10:21:26;;;;;;;34.50;24.80;;;19.00;99.90;;;;;;5046976;28;20507;-69
2023/05/07 10:24:05;;;;;;;33.58;24.83;;;19.10;99.90;;;;;;5046514;28;20256;-67
2023/05/07 10:26:33;;;;;;;35.10;24.73;;;19.20;99.90;;;;;;5050483;28;20037;-70
2023/05/07 10:29:05;;;;;;;33.40;24.70;;;19.30;99.90;;;;;;5057845;28;20127;-70
2023/05/07 10:31:52;;;;;;;33.50;24.27;;;19.40;99.90;;;;;;5064891;28;20116;-69
2023/05/07 10:34:26;;;;;;;34.00;24.80;;;19.40;99.90;;;;;;5048513;28;20043;-67
2023/05/07 10:36:53;;;;;;;33.50;25.17;;;19.40;99.90;;;;;;5032811;28;20049;-71
2023/05/07 10:39:20;;;;;;;35.10;25.15;;;19.40;99.90;;;;;;5050072;28;20048;-69
2023/05/07 10:41:45;;;;;;;33.58;24.75;;;19.50;99.90;;;;;;5062400;28;20080;-69
2023/05/07 10:44:11;;;;;;;36.75;25.52;;;19.60;99.90;;;;;;5049152;28;20138;-67
2023/05/07 10:46:37;;;;;;;33.65;25.15;;;19.50;99.90;;;;;;5052599;28;20041;-70
2023/05/07 10:49:08;;;;;;;34.30;24.98;;;19.50;99.90;;;;;;5051944;28;20036;-68
2023/05/07 10:51:35;;;;;;;36.43;25.50;;;19.50;99.90;;;;;;5054127;28;20509;-66
2023/05/07 10:54:19;;;;;;;34.03;24.85;;;19.50;99.90;;;;;;5049945;28;20283;-68
2023/05/07 10:56:47;;;;;;;32.75;24.25;;;19.40;99.90;;;;;;5049827;28;20025;-71
2023/05/07 10:59:27;;;;;;;33.90;24.35;;;19.40;99.90;;;;;;5049091;28;20068;-70
2023/05/07 11:01:58;;;;;;;32.53;25.15;;;19.40;99.90;;;;;;5052941;28;20036;-69
2023/05/07 11:04:24;;;;;;;32.17;24.45;;;19.50;99.90;;;;;;5047636;28;20137;-69
2023/05/07 11:07:20;;;;;;;34.80;25.17;;;19.60;99.90;;;;;;5048796;28;20048;-69
2023/05/07 11:10:01;;;;;;;29.92;23.55;;;19.70;99.90;;;;;;5056795;28;20399;-68
2023/05/07 11:12:35;;;;;;;32.00;23.98;;;19.80;99.90;;;;;;5055629;28;20036;-68
2023/05/07 11:15:08;;;;;;;33.28;25.20;;;19.90;99.90;;;;;;5049063;28;20468;-68
2023/05/07 11:17:35;;;;;;;31.95;24.50;;;19.90;99.90;;;;;;5047714;28;20080;-68
2023/05/07 11:20:01;;;;;;;30.05;23.40;;;19.90;99.90;;;;;;5044641;28;20040;-69
2023/05/07 11:22:30;;;;;;;31.73;22.92;;;19.90;99.90;;;;;;5043416;28;20037;-70
2023/05/07 11:24:57;;;;;;;28.33;22.55;;;20.00;99.90;;;;;;5058500;28;20080;-72
2023/05/07 11:27:26;;;;;;;31.55;22.80;;;20.10;99.90;;;;;;5049196;28;20044;-67
2023/05/07 11:29:52;;;;;;;33.05;23.20;;;20.10;99.90;;;;;;5068236;28;20052;-68
2023/05/07 11:32:26;;;;;;;28.30;22.98;;;20.20;99.90;;;;;;5067167;28;20052;-68
2023/05/07 11:34:52;;;;;;;31.70;22.95;;;20.20;99.90;;;;;;5050284;28;20032;-68
2023/05/07 11:37:19;;;;;;;33.00;23.85;;;20.10;99.90;;;;;;5049834;28;20056;-70
2023/05/07 11:39:45;;;;;;;32.30;24.42;;;20.00;99.90;;;;;;5049021;28;20423;-67
2023/05/07 11:42:32;;;;;;;31.58;23.80;;;19.90;99.90;;;;;;5051654;28;20040;-69
2023/05/07 11:44:58;;;;;;;31.20;23.95;;;19.80;99.90;;;;;;5062436;28;20123;-67
2023/05/07 11:47:25;;;;;;;26.88;21.35;;;19.80;99.90;;;;;;5049094;28;20144;-71
2023/05/07 11:49:54;;;;;;;29.15;21.70;;;19.90;99.90;;;;;;5067667;28;20045;-70
2023/05/07 11:52:21;;;;;;;27.98;21.83;;;19.90;99.90;;;;;;5067343;28;20052;-69
2023/05/07 11:54:52;;;;;;;28.77;21.98;;;19.90;99.90;;;;;;5065439;28;20044;-69
2023/05/07 11:57:18;;;;;;;33.85;21.95;;;19.90;99.90;;;;;;5048407;28;20052;-69
2023/05/07 11:59:56;;;;;;;29.95;21.58;;;19.90;99.90;;;;;;5046164;28;20049;-67
2023/05/07 12:02:22;;;;;;;26.98;21.45;;;20.00;99.90;;;;;;5051909;28;20396;-69
2023/05/07 12:04:47;;;;;;;28.20;21.65;;;20.00;99.90;;;;;;5048717;28;20088;-67
2023/05/07 12:07:18;;;;;;;27.00;20.35;;;20.10;99.90;;;;;;5047540;28;20041;-69
2023/05/07 12:09:47;;;;;;;26.38;20.58;;;20.30;99.90;;;;;;5054673;28;20072;-69
2023/05/07 12:12:17;;;;;;;25.80;21.85;;;20.50;99.90;;;;;;5048112;28;20484;-70
2023/05/07 12:14:44;;;;;;;25.95;20.50;;;20.60;99.90;;;;;;5063078;28;20479;-67
2023/05/07 12:17:11;;;;;;;23.38;19.08;;;20.60;99.90;;;;;;5052482;28;20044;-68
2023/05/07 12:19:39;;;;;;;24.42;17.48;;;20.70;99.90;;;;;;5064559;28;20041;-68
2023/05/07 12:22:07;;;;;;;20.13;17.33;;;20.90;99.90;;;;;;5050815;28;20555;-69
2023/05/07 12:24:45;;;;;;;19.80;15.45;;;21.00;99.90;;;;;;5049286;28;20048;-68
2023/05/07 12:27:11;;;;;;;19.27;14.98;;;21.20;99.90;;;;;;5049392;28;20396;-68